createdAt,value
2022-11-05T00:02:17.602Z,99389.91
2022-11-05T00:05:38.242Z,99392.00
2022-11-05T00:09:00.231Z,99386.81
2022-11-05T00:12:25.338Z,99392.44
2022-11-05T00:15:46.132Z,99390.03
2022-11-05T00:19:06.695Z,99398.03
2022-11-05T00:22:27.259Z,99395.50
2022-11-05T00:25:30.509Z,99393.13
2022-11-05T00:28:33.368Z,99396.34
2022-11-05T00:31:35.309Z,99399.84
2022-11-05T00:34:38.168Z,99408.69
2022-11-05T00:37:42.325Z,99401.53
2022-11-05T00:40:46.536Z,99405.88
2022-11-05T00:44:07.031Z,99407.56
2022-11-05T00:47:27.170Z,99412.91
2022-11-05T00:50:29.339Z,99407.56
2022-11-05T00:53:31.133Z,99413.72
2022-11-05T00:56:32.969Z,99416.25
2022-11-05T00:59:34.781Z,99417.66
2022-11-05T01:02:36.780Z,99420.19
2022-11-05T01:05:44.964Z,99412.19
2022-11-05T01:08:47.203Z,99412.19
2022-11-05T01:11:49.457Z,99425.38
2022-11-05T01:14:51.379Z,99427.91
2022-11-05T01:17:53.327Z,99429.16
2022-11-05T01:20:55.186Z,99428.19
2022-11-05T01:23:57.219Z,99424.66
2022-11-05T01:26:59.030Z,99425.66
2022-11-05T01:30:00.994Z,99423.69
2022-11-05T01:33:03.594Z,99425.38
2022-11-05T01:36:05.686Z,99425.09
2022-11-05T01:39:07.512Z,99431.25
2022-11-05T01:42:19.505Z,99444.44
2022-11-05T01:45:25.382Z,99439.25
2022-11-05T01:48:32.533Z,99440.22
2022-11-05T01:51:34.883Z,99449.91
2022-11-05T01:54:36.787Z,99451.72
2022-11-05T01:57:38.794Z,99457.75
2022-11-05T02:00:42.353Z,99456.63
2022-11-05T02:03:46.446Z,99461.69
2022-11-05T02:06:48.295Z,99456.91
2022-11-05T02:10:00.171Z,99468.41
2022-11-05T02:13:03.763Z,99470.25
2022-11-05T02:16:23.819Z,99470.09
2022-11-05T02:19:44.110Z,99469.97
2022-11-05T02:23:07.278Z,99469.69
2022-11-05T02:26:33.728Z,99457.19
2022-11-05T02:29:44.694Z,99459.28
2022-11-05T02:33:18.606Z,99467.56
2022-11-05T02:36:46.614Z,99468.41
2022-11-05T02:40:01.102Z,99471.91
2022-11-05T02:43:24.093Z,99471.63
2022-11-05T02:46:32.299Z,99474.31
2022-11-05T02:50:01.831Z,99477.53
2022-11-05T02:53:12.704Z,99474.03
2022-11-05T02:56:22.263Z,99481.88
2022-11-05T02:59:24.087Z,99476.56
2022-11-05T03:02:26.040Z,99491.41
2022-11-05T03:05:40.926Z,99479.50
2022-11-05T03:09:00.698Z,99485.53
2022-11-05T03:12:32.963Z,99476.69
2022-11-05T03:15:46.693Z,99472.06
2022-11-05T03:19:02.490Z,99478.22
2022-11-05T03:22:23.727Z,99478.22
2022-11-05T03:25:29.241Z,99491.56
2022-11-05T03:28:35.698Z,99484.97
2022-11-05T03:31:41.102Z,99496.75
2022-11-05T03:34:47.751Z,99503.63
2022-11-05T03:37:54.571Z,99504.47
2022-11-05T03:41:00.184Z,99503.19
2022-11-05T03:44:06.671Z,99503.63
2022-11-05T03:47:17.114Z,99502.78
2022-11-05T03:50:28.966Z,99513.44
2022-11-05T03:53:37.095Z,99515.13
2022-11-05T03:56:58.782Z,99517.78
2022-11-05T04:00:00.677Z,99517.63
2022-11-05T04:03:02.705Z,99521.28
2022-11-05T04:06:25.422Z,99521.16
2022-11-05T04:09:46.071Z,99529.69
2022-11-05T04:13:06.273Z,99537.94
2022-11-05T04:16:27.071Z,99538.78
2022-11-05T04:19:47.258Z,99541.84
2022-11-05T04:23:08.074Z,99548.84
2022-11-05T04:26:10.103Z,99547.72
2022-11-05T04:29:31.149Z,99555.59
2022-11-05T04:32:33.829Z,99544.66
2022-11-05T04:35:38.274Z,99552.09
2022-11-05T04:38:41.086Z,99556.56
2022-11-05T04:41:43.059Z,99560.34
2022-11-05T04:44:44.989Z,99562.31
2022-11-05T04:47:46.835Z,99571.41
2022-11-05T04:50:48.663Z,99569.56
2022-11-05T04:53:50.525Z,99581.84
2022-11-05T04:56:52.401Z,99586.44
2022-11-05T04:59:55.215Z,99589.50
2022-11-05T05:02:57.102Z,99595.47
2022-11-05T05:06:03.808Z,99598.41
2022-11-05T05:09:06.077Z,99604.38
2022-11-05T05:12:08.160Z,99601.50
2022-11-05T05:15:10.061Z,99603.97
2022-11-05T05:18:11.863Z,99608.72
2022-11-05T05:21:33.974Z,99616.03
2022-11-05T05:24:35.759Z,99628.16
2022-11-05T05:27:37.572Z,99632.38
2022-11-05T05:30:39.420Z,99630.56
2022-11-05T05:33:41.302Z,99633.34
2022-11-05T05:36:43.193Z,99642.09
2022-11-05T05:39:48.799Z,99646.63
2022-11-05T05:42:55.654Z,99655.16
2022-11-05T05:45:57.837Z,99667.00
2022-11-05T05:48:59.859Z,99662.53
2022-11-05T05:52:01.964Z,99667.50
2022-11-05T05:55:04.002Z,99674.78
2022-11-05T05:58:05.855Z,99690.59
2022-11-05T06:01:17.211Z,99683.59
2022-11-05T06:04:20.815Z,99688.19
2022-11-05T06:07:23.146Z,99702.44
2022-11-05T06:10:25.681Z,99701.38
2022-11-05T06:13:28.116Z,99711.50
2022-11-05T06:16:35.819Z,99716.31
2022-11-05T06:19:37.621Z,99718.13
2022-11-05T06:22:39.766Z,99726.78
2022-11-05T06:25:41.691Z,99725.94
2022-11-05T06:28:43.883Z,99729.66
2022-11-05T06:31:45.701Z,99743.28
2022-11-05T06:34:47.584Z,99747.97
2022-11-05T06:37:49.467Z,99753.16
2022-11-05T06:40:51.297Z,99752.91
2022-11-05T06:43:53.163Z,99764.97
2022-11-05T06:46:54.998Z,99767.63
2022-11-05T06:49:57.527Z,99777.50
2022-11-05T06:53:01.362Z,99783.53
2022-11-05T06:56:07.680Z,99786.31
2022-11-05T06:59:09.450Z,99796.81
2022-11-05T07:02:13.744Z,99783.53
2022-11-05T07:05:16.660Z,99792.19
2022-11-05T07:08:18.514Z,99788.47
2022-11-05T07:11:20.516Z,99798.25
2022-11-05T07:14:22.445Z,99789.56
2022-11-05T07:17:24.243Z,99790.41
2022-11-05T07:20:32.324Z,99794.06
2022-11-05T07:23:35.590Z,99790.84
2022-11-05T07:26:37.418Z,99798.34
2022-11-05T07:29:39.646Z,99800.25
2022-11-05T07:32:41.584Z,99809.81
2022-11-05T07:35:43.432Z,99809.09
2022-11-05T07:38:45.270Z,99812.13
2022-11-05T07:41:47.136Z,99820.31
2022-11-05T07:44:49.000Z,99812.84
2022-11-05T07:47:52.932Z,99808.88
2022-11-05T07:50:54.824Z,99811.09
2022-11-05T07:53:56.701Z,99803.72
2022-11-05T07:56:58.636Z,99819.66
2022-11-05T08:00:00.578Z,99816.41
2022-11-05T08:03:07.686Z,99822.34
2022-11-05T08:06:09.867Z,99820.66
2022-11-05T08:09:11.724Z,99821.13
2022-11-05T08:12:13.576Z,99826.69
2022-11-05T08:15:15.676Z,99818.97
2022-11-05T08:18:18.163Z,99822.84
2022-11-05T08:21:20.036Z,99827.91
2022-11-05T08:24:21.897Z,99830.81
2022-11-05T08:27:23.851Z,99826.34
2022-11-05T08:30:26.271Z,99838.28
2022-11-05T08:33:31.363Z,99832.63
2022-11-05T08:36:35.188Z,99834.06
2022-11-05T08:39:37.007Z,99835.59
2022-11-05T08:42:38.824Z,99836.31
2022-11-05T08:45:41.508Z,99835.09
2022-11-05T08:48:44.130Z,99838.72
2022-11-05T08:51:46.070Z,99837.50
2022-11-05T08:54:47.901Z,99845.88
2022-11-05T08:57:59.549Z,99853.47
2022-11-05T09:01:05.397Z,99851.66
2022-11-05T09:04:07.795Z,99851.06
2022-11-05T09:07:09.665Z,99859.28
2022-11-05T09:10:11.516Z,99868.94
2022-11-05T09:13:18.727Z,99861.56
2022-11-05T09:16:26.208Z,99862.66
2022-11-05T09:19:28.003Z,99862.91
2022-11-05T09:22:30.008Z,99867.97
2022-11-05T09:25:32.832Z,99871.47
2022-11-05T09:28:34.747Z,99860.84
2022-11-05T09:31:36.583Z,99869.31
2022-11-05T09:34:38.489Z,99869.91
2022-11-05T09:37:40.418Z,99873.19
2022-11-05T09:41:01.803Z,99878.00
2022-11-05T09:44:13.714Z,99883.69
2022-11-05T09:47:26.158Z,99881.50
2022-11-05T09:50:36.627Z,99885.13
2022-11-05T09:53:41.014Z,99876.78
2022-11-05T09:56:43.348Z,99889.25
2022-11-05T09:59:48.826Z,99885.38
2022-11-05T10:02:57.298Z,99893.13
2022-11-05T10:06:07.358Z,99891.91
2022-11-05T10:09:25.452Z,99896.50
2022-11-05T10:16:18.650Z,99907.84
2022-11-05T10:19:36.845Z,99897.34
2022-11-05T10:22:41.971Z,99908.22
2022-11-05T10:25:51.665Z,99909.66
2022-11-05T10:28:55.038Z,99907.00
2022-11-05T10:31:58.588Z,99906.16
2022-11-05T10:35:04.256Z,99893.72
2022-11-05T10:38:06.120Z,99895.41
2022-11-05T10:41:40.365Z,99903.25
2022-11-05T10:45:02.067Z,99905.91
2022-11-05T10:48:27.586Z,99911.47
2022-11-05T10:51:31.900Z,99909.78
2022-11-05T10:54:35.707Z,99911.38
2022-11-05T10:57:40.108Z,99907.50
2022-11-05T11:00:59.938Z,99911.34
2022-11-05T11:04:23.038Z,99908.47
2022-11-05T11:07:28.922Z,99911.47
2022-11-05T11:10:37.449Z,99922.59
2022-11-05T11:14:10.157Z,99930.19
2022-11-05T11:17:27.872Z,99939.03
2022-11-05T11:20:33.211Z,99939.66
2022-11-05T11:23:41.003Z,99936.88
2022-11-05T11:26:42.939Z,99947.63
2022-11-05T11:29:52.594Z,99943.63
2022-11-05T11:33:03.874Z,99943.00
2022-11-05T11:36:06.843Z,99941.69
2022-11-05T11:39:14.695Z,99954.97
2022-11-05T11:42:26.052Z,99950.75
2022-11-05T11:45:43.885Z,99946.16
2022-11-05T11:48:50.613Z,99955.81
2022-11-05T11:51:59.987Z,99957.84
2022-11-05T11:55:23.059Z,99962.53
2022-11-05T11:58:38.535Z,99960.19
2022-11-05T12:02:02.065Z,99967.44
2022-11-05T12:05:16.406Z,99960.66
2022-11-05T12:08:41.691Z,99969.81
2022-11-05T12:12:05.191Z,99961.84
2022-11-05T12:15:20.078Z,99965.13
2022-11-05T12:18:33.754Z,99980.22
2022-11-05T12:22:30.149Z,99972.34
2022-11-05T12:26:18.023Z,99974.84
2022-11-05T12:29:53.329Z,99984.97
2022-11-05T12:33:36.700Z,99983.50
2022-11-05T12:37:20.128Z,99988.81
2022-11-05T12:40:34.055Z,99988.47
2022-11-05T12:43:41.444Z,99991.91
2022-11-05T12:47:09.993Z,99992.25
2022-11-05T12:50:24.365Z,99990.56
2022-11-05T12:54:05.756Z,100000.31
2022-11-05T12:57:11.726Z,99990.44
2022-11-05T13:00:13.797Z,99991.19
2022-11-05T13:03:15.589Z,99993.09
2022-11-05T13:06:22.124Z,99997.44
2022-11-05T13:09:54.437Z,99995.19
2022-11-05T13:13:07.893Z,99992.75
2022-11-05T13:16:22.710Z,99989.59
2022-11-05T13:19:47.508Z,99995.81
2022-11-05T13:22:55.798Z,100005.16
2022-11-05T13:26:15.599Z,100016.41
2022-11-05T13:29:32.087Z,100028.09
2022-11-05T13:32:45.329Z,100035.44
2022-11-05T13:35:47.158Z,100034.97
2022-11-05T13:39:10.412Z,100027.88
2022-11-05T13:42:16.186Z,100025.53
2022-11-05T13:45:50.329Z,100031.81
2022-11-05T13:49:01.265Z,100037.34
2022-11-05T13:52:27.112Z,100036.81
2022-11-05T13:56:01.540Z,100040.00
2022-11-05T13:59:43.045Z,100038.13
2022-11-05T14:02:51.469Z,100038.56
2022-11-05T14:05:59.311Z,100045.97
2022-11-05T14:09:04.660Z,100050.97
2022-11-05T14:12:16.863Z,100062.63
2022-11-05T14:15:23.616Z,100069.97
2022-11-05T14:18:25.388Z,100070.91
2022-11-05T14:21:27.263Z,100080.03
2022-11-05T14:24:43.143Z,100069.94
2022-11-05T14:27:47.978Z,100078.75
2022-11-05T14:30:49.979Z,100093.16
2022-11-05T14:34:03.959Z,100105.38
2022-11-05T14:37:11.831Z,100112.38
2022-11-05T14:40:26.174Z,100115.22
2022-11-05T14:43:31.779Z,100116.50
2022-11-05T14:46:45.273Z,100110.31
2022-11-05T14:50:11.669Z,100109.03
2022-11-05T14:53:36.666Z,100100.94
2022-11-05T14:56:56.549Z,100104.69
2022-11-05T15:00:00.944Z,100117.78
2022-11-05T15:03:27.854Z,100116.50
2022-11-05T15:06:32.728Z,100121.88
2022-11-05T15:09:42.625Z,100118.72
2022-11-05T15:13:03.941Z,100122.59
2022-11-05T15:16:07.145Z,100136.88
2022-11-05T15:19:25.097Z,100135.38
2022-11-05T15:22:35.000Z,100131.22
2022-11-05T15:25:50.400Z,100130.09
2022-11-05T15:28:56.118Z,100127.09
2022-11-05T15:31:58.672Z,100146.94
2022-11-05T15:35:00.717Z,100155.53
2022-11-05T15:38:02.957Z,100149.94
2022-11-05T15:41:27.087Z,100151.28
2022-11-05T15:44:38.675Z,100159.69
2022-11-05T15:47:46.384Z,100160.53
2022-11-05T15:50:48.277Z,100167.03
2022-11-05T15:57:27.215Z,100162.97
2022-11-05T16:00:33.286Z,100175.34
2022-11-05T16:03:38.713Z,100175.94
2022-11-05T16:06:42.865Z,100183.69
2022-11-05T16:10:01.879Z,100181.50
2022-11-05T16:13:23.161Z,100185.66
2022-11-05T16:16:33.262Z,100183.19
2022-11-05T16:19:40.492Z,100193.03
2022-11-05T16:22:48.368Z,100200.31
2022-11-05T16:25:51.984Z,100201.44
2022-11-05T16:28:54.383Z,100206.63
2022-11-05T16:31:58.788Z,100208.91
2022-11-05T16:35:03.631Z,100216.09
2022-11-05T16:38:06.097Z,100219.28
2022-11-05T16:41:20.100Z,100220.72
2022-11-05T16:44:21.992Z,100224.13
2022-11-05T16:47:26.145Z,100218.91
2022-11-05T16:50:31.976Z,100212.41
2022-11-05T16:53:33.991Z,100215.72
2022-11-05T16:56:36.776Z,100219.97
2022-11-05T16:59:38.693Z,100226.00
2022-11-05T17:02:43.855Z,100235.56
2022-11-05T17:05:46.519Z,100233.75
2022-11-05T17:08:48.677Z,100236.69
2022-11-05T17:11:50.586Z,100241.88
2022-11-05T17:14:52.425Z,100241.03
2022-11-05T17:17:55.504Z,100241.31
2022-11-05T17:20:57.449Z,100231.00
2022-11-05T17:23:59.231Z,100231.75
2022-11-05T17:27:01.142Z,100240.53
2022-11-05T17:30:03.485Z,100229.94
2022-11-05T17:33:05.521Z,100234.56
2022-11-05T17:36:09.646Z,100232.22
2022-11-05T17:39:11.643Z,100235.13
2022-11-05T17:42:13.545Z,100243.34
2022-11-05T17:45:15.892Z,100237.88
2022-11-05T17:48:19.171Z,100239.47
2022-11-05T17:51:21.253Z,100247.41
2022-11-05T17:54:23.140Z,100245.53
2022-11-05T17:57:25.187Z,100237.00
2022-11-05T18:00:29.049Z,100241.63
2022-11-05T18:03:31.291Z,100232.28
2022-11-05T18:06:33.210Z,100224.06
2022-11-05T18:09:34.993Z,100233.22
2022-11-05T18:12:37.346Z,100239.34
2022-11-05T18:15:41.487Z,100246.16
2022-11-05T18:18:43.512Z,100260.22
2022-11-05T18:21:46.603Z,100265.34
2022-11-05T18:24:48.531Z,100264.56
2022-11-05T18:27:50.499Z,100275.91
2022-11-05T18:30:52.438Z,100275.50
2022-11-05T18:33:59.097Z,100281.75
2022-11-05T18:37:00.902Z,100286.53
2022-11-05T18:40:02.812Z,100285.09
2022-11-05T18:43:06.368Z,100285.09
2022-11-05T18:46:08.796Z,100299.06
2022-11-05T18:49:13.534Z,100291.81
2022-11-05T18:52:15.465Z,100297.03
2022-11-05T18:55:17.567Z,100308.19
2022-11-05T18:58:19.528Z,100303.91
2022-11-05T19:01:24.961Z,100307.69
2022-11-05T19:04:27.158Z,100309.38
2022-11-05T19:07:31.957Z,100321.94
2022-11-05T19:10:34.006Z,100328.69
2022-11-05T19:13:36.193Z,100325.28
2022-11-05T19:16:38.399Z,100330.22
2022-11-05T19:19:40.305Z,100324.06
2022-11-05T19:22:42.218Z,100321.94
2022-11-05T19:25:44.111Z,100322.09
2022-11-05T19:28:46.004Z,100328.59
2022-11-05T19:31:48.933Z,100333.72
2022-11-05T19:34:50.702Z,100334.72
2022-11-05T19:37:54.158Z,100345.81
2022-11-05T19:40:55.982Z,100349.13
2022-11-05T19:44:01.951Z,100345.47
2022-11-05T19:47:05.962Z,100347.50
2022-11-05T19:50:08.081Z,100332.41
2022-11-05T19:53:10.841Z,100329.78
2022-11-05T19:56:16.088Z,100333.63
2022-11-05T19:59:18.041Z,100340.59
2022-11-05T20:02:20.281Z,100340.78
2022-11-05T20:05:22.325Z,100347.44
2022-11-05T20:08:24.139Z,100355.53
2022-11-05T20:11:26.310Z,100364.56
2022-11-05T20:14:28.210Z,100367.81
2022-11-05T20:17:30.668Z,100379.06
2022-11-05T20:20:33.070Z,100375.31
2022-11-05T20:23:36.182Z,100371.53
2022-11-05T20:26:38.580Z,100376.75
2022-11-05T20:29:40.463Z,100370.25
2022-11-05T20:32:42.293Z,100372.63
2022-11-05T20:35:44.135Z,100370.16
2022-11-05T20:38:50.747Z,100372.63
2022-11-05T20:41:53.477Z,100374.34
2022-11-05T20:44:55.279Z,100378.78
2022-11-05T20:47:57.102Z,100372.38
2022-11-05T20:50:59.425Z,100365.47
2022-11-05T20:54:01.975Z,100371.44
2022-11-05T20:57:04.117Z,100369.66
2022-11-05T21:00:07.287Z,100370.50
2022-11-05T21:03:09.155Z,100363.41
2022-11-05T21:06:12.205Z,100368.53
2022-11-05T21:09:14.098Z,100371.34
2022-11-05T21:12:15.986Z,100369.28
2022-11-05T21:15:22.999Z,100363.31
2022-11-05T21:18:32.417Z,100369.47
2022-11-05T21:21:37.497Z,100375.59
2022-11-05T21:24:43.364Z,100370.41
2022-11-05T21:27:45.204Z,100372.69
2022-11-05T21:30:49.160Z,100375.16
2022-11-05T21:33:55.158Z,100382.34
2022-11-05T21:36:58.732Z,100386.28
2022-11-05T21:40:00.515Z,100384.56
2022-11-05T21:43:02.594Z,100385.00
2022-11-05T21:46:05.359Z,100388.69
2022-11-05T21:49:07.615Z,100380.66
2022-11-05T21:52:30.215Z,100389.78
2022-11-05T21:55:50.764Z,100388.69
2022-11-05T21:59:18.457Z,100387.16
2022-11-05T22:02:22.947Z,100398.25
2022-11-05T22:05:24.900Z,100394.41
2022-11-05T22:08:27.345Z,100389.56
2022-11-05T22:11:29.225Z,100398.50
2022-11-05T22:14:31.125Z,100397.47
2022-11-05T22:17:33.024Z,100402.84
2022-11-05T22:20:39.140Z,100393.47
2022-11-05T22:23:41.099Z,100403.44
2022-11-05T22:26:43.812Z,100405.91
2022-11-05T22:29:46.270Z,100396.09
2022-11-05T22:32:48.143Z,100398.22
2022-11-05T22:35:49.965Z,100400.09
2022-11-05T22:38:52.150Z,100399.69
2022-11-05T22:41:56.410Z,100408.63
2022-11-05T22:44:59.030Z,100414.44
2022-11-05T22:48:06.376Z,100415.22
2022-11-05T22:51:11.738Z,100417.50
2022-11-05T22:54:13.944Z,100426.97
2022-11-05T22:57:15.858Z,100419.06
2022-11-05T23:00:18.028Z,100423.16
2022-11-05T23:03:20.902Z,100431.00
2022-11-05T23:06:44.059Z,100425.88
2022-11-05T23:10:04.592Z,100436.19
2022-11-05T23:13:08.010Z,100442.84
2022-11-05T23:16:28.757Z,100436.25
2022-11-05T23:19:49.442Z,100433.00
2022-11-05T23:23:10.091Z,100438.81
2022-11-05T23:26:30.796Z,100444.88
2022-11-05T23:29:32.828Z,100427.41
2022-11-05T23:32:35.463Z,100423.75
2022-11-05T23:35:56.097Z,100425.69
2022-11-05T23:38:57.888Z,100419.63
2022-11-05T23:42:18.606Z,100428.41
2022-11-05T23:45:39.310Z,100428.41
2022-11-05T23:48:41.174Z,100423.31
2022-11-05T23:51:43.220Z,100426.03
2022-11-05T23:54:45.033Z,100415.53
2022-11-05T23:57:47.034Z,100424.56
